Wappingers Falls, NY (12590)

12:44 AM EDT on August 21, 2014 (GMT -0400)
Crown Heights | Change Station
CLOSE
Current Station
Personal Weather Station
Location: Poughkeepsie, NY
Elevation: 308 ft
Nearby Weather Stations

Elev 308 ft 41.62 °N, 73.92 °W | Updated 4 seconds ago

Overcast
Overcast
69.5 °F
Feels Like 69.5 °F
N
0.0
Wind Variable Wind from ESE
Gusts 0.0 mph

Today
High -- | Low -- °F
--% Chance of Precip.
Yesterday
High -- | Low -- °F
Precip. -- in
6:10 AM 7:46 PM
Waning Crescent, 17% visible
Pressure 30.01 in
Visibility 10.0 miles
Clouds Mostly Cloudy 4700 ft
Overcast 6000 ft
Dew Point 58 °F
Humidity 68%
Rainfall 0.00 in
Snow Depth Not available.
UV 0 out of 12
Pollen 9.10 out of 12
PM2.5 Good
Flu Activity Not available.
METAR KPOU 210353Z 16004KT 10SM BKN047 OVC060 23/14 A3002 RMK AO2 SLP160 T02280144

More Conditions Fewer Conditions

Pressure 30.01 in
Visibility 10.0 miles
Clouds Mostly Cloudy 4700 ft
Overcast 6000 ft
Dew Point 58 °F
Humidity 68%
Rainfall 0.00 in
Snow Depth Not available.
UV 0 out of 12
Pollen 9.10 out of 12
PM2.5 Good
Flu Activity Not available.
METAR KPOU 210353Z 16004KT 10SM BKN047 OVC060 23/14 A3002 RMK AO2 SLP160 T02280144

More Conditions Fewer Conditions

10-Day Weather Forecast

Almanac

Astronomy

Aug. 21, 2014 Rise Set
Actual Time 6:10 AM EDT 7:46 PM EDT
Civil Twilight 5:40 AM EDT 8:15 PM EDT
Nautical Twilight 5:05 AM EDT 8:50 PM EDT
Astronomical Twilight 4:27 AM EDT 9:28 PM EDT
Moon 2:37 AM EDT 5:14 PM EDT
Length of Visible Light 14h 34m
Length of Day
13h 35m
Tomorrow will be 2m 33s shorter.
Waning Crescent, 17% of the Moon is Illuminated
Today
Waning Crescent
Aug 25
New
Sep 2
First Quarter
Sep 8
Full
Sep 15
Last Quarter

Today's Extremes

State Highs State Lows

Community

WunderPhotos

Upload Photos

1,745,856 photos uploaded!

Nearby

Air Quality

  Air Quality AQ Index Pollutant
Yesterday Good
OZONE
Yesterday Good
PM2.5
Current Good
PM2.5
Wednesday Moderate
OZONE
Wednesday Good
PM2.5
Thursday Good
OZONE
Thursday Good
PM2.5

Snow Depth

Station Depth Elevation
No new snow has been reported.

Earthquake Activity

City Distance Mag. Time & Date
Deep River Center, Connecticut 74 miles 2.7 3:09 AM EDT
2014-08-14
Minimum magnitude displayed is 2.5.

Coastal Water Temperatures

Place Temperature
No Stations Reporting

Nearby Weather Stations